createdAt,value
2023-05-01T00:02:04.815Z,101716.03
2023-05-01T00:04:33.773Z,101734.19
2023-05-01T00:07:00.366Z,101696.19
2023-05-01T00:09:30.133Z,101717.00
2023-05-01T00:11:56.609Z,101694.50
2023-05-01T00:14:23.178Z,101723.88
2023-05-01T00:16:49.932Z,101697.22
2023-05-01T00:19:19.273Z,101704.94
2023-05-01T00:21:46.885Z,101712.78
2023-05-01T00:24:13.880Z,101718.94
2023-05-01T00:26:40.415Z,101718.94
2023-05-01T00:29:07.431Z,101689.63
2023-05-01T00:31:34.037Z,101679.25
2023-05-01T00:34:00.628Z,101699.84
2023-05-01T00:36:27.394Z,101699.91
2023-05-01T00:38:53.999Z,101689.44
2023-05-01T00:41:21.171Z,101671.38
2023-05-01T00:43:47.652Z,101689.56
2023-05-01T00:46:14.295Z,101672.28
2023-05-01T00:48:43.115Z,101684.31
2023-05-01T00:51:09.850Z,101677.41
2023-05-01T00:53:37.030Z,101686.13
2023-05-01T00:56:04.226Z,101667.88
2023-05-01T00:58:31.042Z,101651.47
2023-05-01T01:00:58.267Z,101665.22
2023-05-01T01:03:28.003Z,101648.00
2023-05-01T01:06:05.005Z,101656.56
2023-05-01T01:08:42.380Z,101660.88
2023-05-01T01:11:22.882Z,101659.97
2023-05-01T01:14:19.029Z,101658.22
2023-05-01T01:16:46.784Z,101641.00
2023-05-01T01:19:36.067Z,101657.41
2023-05-01T01:22:11.640Z,101645.28
2023-05-01T01:24:59.873Z,101651.25
2023-05-01T01:27:35.956Z,101644.28
2023-05-01T01:30:21.259Z,101639.06
2023-05-01T01:33:17.087Z,101636.44
2023-05-01T01:35:53.823Z,101626.00
2023-05-01T01:38:25.009Z,101623.50
2023-05-01T01:41:07.424Z,101619.06
2023-05-01T01:44:00.298Z,101602.69
2023-05-01T01:46:27.740Z,101608.78
2023-05-01T01:48:57.880Z,101610.41
2023-05-01T01:51:27.284Z,101588.03
2023-05-01T01:53:57.156Z,101589.81
2023-05-01T01:56:25.888Z,101591.47
2023-05-01T01:58:53.705Z,101588.09
2023-05-01T02:01:23.349Z,101587.22
2023-05-01T02:03:51.871Z,101593.28
2023-05-01T02:06:20.049Z,101577.81
2023-05-01T02:08:49.218Z,101592.66
2023-05-01T02:11:20.964Z,101575.34
2023-05-01T02:13:49.322Z,101583.91
2023-05-01T02:16:17.140Z,101587.31
2023-05-01T02:18:46.017Z,101564.06
2023-05-01T02:21:16.178Z,101571.75
2023-05-01T02:23:43.250Z,101587.41
2023-05-01T02:26:17.085Z,101565.00
2023-05-01T02:28:44.212Z,101578.84
2023-05-01T02:31:12.902Z,101577.13
2023-05-01T02:33:39.532Z,101577.97
2023-05-01T02:36:06.317Z,101589.22
2023-05-01T02:38:32.842Z,101576.25
2023-05-01T02:41:01.903Z,101563.31
2023-05-01T02:43:32.388Z,101573.72
2023-05-01T02:46:01.760Z,101585.75
2023-05-01T02:48:32.956Z,101583.19
2023-05-01T02:51:01.659Z,101550.34
2023-05-01T02:53:28.389Z,101569.41
2023-05-01T02:55:57.622Z,101563.31
2023-05-01T02:58:24.606Z,101563.22
2023-05-01T03:00:51.190Z,101544.25
2023-05-01T03:03:18.078Z,101563.16
2023-05-01T03:05:44.762Z,101577.78
2023-05-01T03:08:11.578Z,101555.31
2023-05-01T03:10:43.182Z,101566.50
2023-05-01T03:13:13.115Z,101556.97
2023-05-01T03:15:39.749Z,101569.91
2023-05-01T03:18:06.719Z,101566.38
2023-05-01T03:20:34.258Z,101544.88
2023-05-01T03:23:01.203Z,101568.09
2023-05-01T03:25:27.793Z,101563.00
2023-05-01T03:27:55.195Z,101567.28
2023-05-01T03:30:22.251Z,101568.09
2023-05-01T03:32:48.990Z,101559.47
2023-05-01T03:35:16.018Z,101549.13
2023-05-01T03:37:44.739Z,101544.78
2023-05-01T03:40:13.582Z,101573.44
2023-05-01T03:42:40.104Z,101557.03
2023-05-01T03:45:07.798Z,101563.16
2023-05-01T03:47:34.769Z,101574.38
2023-05-01T03:50:02.471Z,101564.88
2023-05-01T03:52:29.091Z,101573.50
2023-05-01T03:54:55.594Z,101557.97
2023-05-01T03:57:23.318Z,101559.69
2023-05-01T03:59:52.808Z,101545.88
2023-05-01T04:02:19.587Z,101557.19
2023-05-01T04:04:46.529Z,101557.03
2023-05-01T04:07:14.029Z,101566.53
2023-05-01T04:09:40.558Z,101552.75
2023-05-01T04:12:07.401Z,101558.72
2023-05-01T04:14:33.862Z,101554.47
2023-05-01T04:17:00.766Z,101535.63
2023-05-01T04:19:27.611Z,101578.78
2023-05-01T04:21:55.237Z,101567.66
2023-05-01T04:24:21.891Z,101575.38
2023-05-01T04:26:48.444Z,101575.28
2023-05-01T04:29:14.999Z,101563.16
2023-05-01T04:31:44.128Z,101561.50
2023-05-01T04:34:10.743Z,101554.63
2023-05-01T04:36:37.345Z,101553.72
2023-05-01T04:39:04.080Z,101556.19
2023-05-01T04:41:30.633Z,101575.16
2023-05-01T04:43:57.286Z,101575.25
2023-05-01T04:46:26.607Z,101570.00
2023-05-01T04:48:53.299Z,101574.34
2023-05-01T04:51:20.641Z,101546.81
2023-05-01T04:53:47.393Z,101584.00
2023-05-01T04:56:14.257Z,101565.94
2023-05-01T04:58:40.978Z,101577.16
2023-05-01T05:01:07.516Z,101568.56
2023-05-01T05:03:36.399Z,101572.91
2023-05-01T05:06:03.621Z,101587.63
2023-05-01T05:08:30.846Z,101587.69
2023-05-01T05:11:01.240Z,101563.59
2023-05-01T05:13:29.034Z,101587.75
2023-05-01T05:15:55.736Z,101559.22
2023-05-01T05:18:22.583Z,101565.31
2023-05-01T05:20:49.770Z,101560.16
2023-05-01T05:23:16.493Z,101580.00
2023-05-01T05:25:43.012Z,101577.38
2023-05-01T05:28:09.641Z,101539.28
2023-05-01T05:30:36.422Z,101570.25
2023-05-01T05:33:03.668Z,101579.78
2023-05-01T05:35:30.312Z,101577.25
2023-05-01T05:37:56.778Z,101570.28
2023-05-01T05:40:23.314Z,101563.31
2023-05-01T05:42:50.389Z,101555.53
2023-05-01T05:45:17.118Z,101558.91
2023-05-01T05:47:43.794Z,101561.44
2023-05-01T05:50:10.701Z,101576.13
2023-05-01T05:52:37.167Z,101564.78
2023-05-01T05:55:03.897Z,101567.31
2023-05-01T05:57:30.499Z,101563.00
2023-05-01T05:59:57.734Z,101576.69
2023-05-01T06:02:24.696Z,101575.00
2023-05-01T06:04:54.372Z,101581.78
2023-05-01T06:07:23.006Z,101573.19
2023-05-01T06:09:49.640Z,101575.75
2023-05-01T06:12:16.301Z,101591.25
2023-05-01T06:14:45.098Z,101576.53
2023-05-01T06:17:11.686Z,101585.06
2023-05-01T06:19:38.310Z,101584.31
2023-05-01T06:22:04.957Z,101592.03
2023-05-01T06:24:31.494Z,101574.00
2023-05-01T06:26:59.659Z,101610.28
2023-05-01T06:29:30.240Z,101600.75
2023-05-01T06:31:56.844Z,101568.78
2023-05-01T06:34:23.511Z,101582.56
2023-05-01T06:36:49.987Z,101590.31
2023-05-01T06:39:16.538Z,101585.16
2023-05-01T06:41:46.082Z,101567.75
2023-05-01T06:44:12.823Z,101574.53
2023-05-01T06:46:39.514Z,101578.06
2023-05-01T06:49:08.652Z,101575.50
2023-05-01T06:51:35.232Z,101576.22
2023-05-01T06:54:02.282Z,101582.28
2023-05-01T06:56:29.260Z,101595.25
2023-05-01T06:58:55.724Z,101589.94
2023-05-01T07:01:22.429Z,101589.94
2023-05-01T07:03:52.125Z,101575.16
2023-05-01T07:06:18.746Z,101568.25
2023-05-01T07:08:45.234Z,101605.34
2023-05-01T07:11:12.329Z,101601.75
2023-05-01T07:13:38.814Z,101593.88
2023-05-01T07:16:05.742Z,101598.22
2023-05-01T07:18:32.531Z,101590.38
2023-05-01T07:20:59.065Z,101597.16
2023-05-01T07:23:26.172Z,101599.59
2023-05-01T07:25:53.188Z,101607.16
2023-05-01T07:28:20.614Z,101608.72
2023-05-01T07:30:47.419Z,101610.31
2023-05-01T07:33:14.054Z,101620.59
2023-05-01T07:35:40.641Z,101635.25
2023-05-01T07:38:07.959Z,101616.13
2023-05-01T07:40:35.133Z,101596.97
2023-05-01T07:43:01.868Z,101619.25
2023-05-01T07:45:28.466Z,101606.91
2023-05-01T07:47:55.522Z,101610.28
2023-05-01T07:50:22.673Z,101613.44
2023-05-01T07:52:49.517Z,101625.50
2023-05-01T07:55:17.319Z,101594.25
2023-05-01T07:57:43.921Z,101621.88
2023-05-01T08:00:11.070Z,101632.16
2023-05-01T08:02:37.895Z,101641.50
2023-05-01T08:05:04.821Z,101631.91
2023-05-01T08:07:31.742Z,101632.06
2023-05-01T08:10:00.964Z,101623.69
2023-05-01T08:12:29.323Z,101639.81
2023-05-01T08:14:55.956Z,101609.50
2023-05-01T08:17:22.811Z,101623.78
2023-05-01T08:19:50.718Z,101628.50
2023-05-01T08:22:17.302Z,101629.13
2023-05-01T08:24:44.096Z,101606.63
2023-05-01T08:27:10.865Z,101623.03
2023-05-01T08:29:40.114Z,101598.22
2023-05-01T08:32:06.665Z,101608.53
2023-05-01T08:34:33.488Z,101608.53
2023-05-01T08:37:00.287Z,101612.53
2023-05-01T08:39:26.830Z,101613.28
2023-05-01T08:41:53.917Z,101613.78
2023-05-01T08:44:20.953Z,101626.41
2023-05-01T08:47:08.410Z,101620.34
2023-05-01T08:49:37.704Z,101609.00
2023-05-01T08:52:06.562Z,101598.53
2023-05-01T08:54:34.668Z,101632.22
2023-05-01T08:57:05.956Z,101622.91
2023-05-01T08:59:37.136Z,101602.31
2023-05-01T09:02:06.047Z,101610.06
2023-05-01T09:04:35.565Z,101624.88
2023-05-01T09:07:02.302Z,101628.41
2023-05-01T09:09:32.355Z,101625.03
2023-05-01T09:12:16.200Z,101634.41
2023-05-01T09:14:42.767Z,101636.91
2023-05-01T09:17:12.093Z,101631.66
2023-05-01T09:19:40.172Z,101632.44
2023-05-01T09:22:07.772Z,101655.72
2023-05-01T09:24:34.759Z,101647.03
2023-05-01T09:27:01.712Z,101641.38
2023-05-01T09:29:43.124Z,101653.38
2023-05-01T09:32:20.659Z,101655.75
2023-05-01T09:34:49.456Z,101661.97
2023-05-01T09:37:32.374Z,101665.41
2023-05-01T09:40:12.007Z,101663.50
2023-05-01T09:42:52.514Z,101652.50
2023-05-01T09:45:19.691Z,101667.22
2023-05-01T09:47:46.937Z,101670.75
2023-05-01T09:50:33.602Z,101672.50
2023-05-01T09:53:06.486Z,101677.56
2023-05-01T09:55:34.497Z,101673.72
2023-05-01T09:58:01.149Z,101655.31
2023-05-01T10:00:27.945Z,101653.66
2023-05-01T10:02:55.073Z,101656.28
2023-05-01T10:05:24.845Z,101676.31
2023-05-01T10:08:05.884Z,101680.75
2023-05-01T10:11:05.370Z,101655.78
2023-05-01T10:13:32.099Z,101668.22
2023-05-01T10:16:01.469Z,101655.00
2023-05-01T10:18:30.606Z,101663.03
2023-05-01T10:20:57.422Z,101646.25
2023-05-01T10:23:26.730Z,101644.50
2023-05-01T10:26:03.625Z,101651.66
2023-05-01T10:28:35.683Z,101645.31
2023-05-01T10:31:03.874Z,101651.03
2023-05-01T10:33:33.617Z,101635.88
2023-05-01T10:36:01.612Z,101661.75
2023-05-01T10:38:38.561Z,101630.66
2023-05-01T10:41:06.668Z,101663.69
2023-05-01T10:43:35.613Z,101656.50
2023-05-01T10:46:08.440Z,101660.28
2023-05-01T10:48:44.230Z,101645.66
2023-05-01T10:51:13.556Z,101639.91
2023-05-01T10:54:00.878Z,101617.56
2023-05-01T10:56:27.693Z,101652.91
2023-05-01T10:59:04.934Z,101626.16
2023-05-01T11:01:39.192Z,101661.25
2023-05-01T11:04:08.415Z,101638.25
2023-05-01T11:06:36.617Z,101625.28
2023-05-01T11:09:42.105Z,101642.75
2023-05-01T11:12:11.112Z,101630.16
2023-05-01T11:15:08.650Z,101641.22
2023-05-01T11:17:44.436Z,101637.88
2023-05-01T11:20:37.809Z,101649.53
2023-05-01T11:23:07.674Z,101649.19
2023-05-01T11:25:40.047Z,101642.41
2023-05-01T11:28:07.054Z,101632.53
2023-05-01T11:30:42.680Z,101624.75
2023-05-01T11:33:11.099Z,101628.63
2023-05-01T11:35:38.906Z,101640.13
2023-05-01T11:38:19.218Z,101624.78
2023-05-01T11:40:46.378Z,101628.63
2023-05-01T11:43:12.890Z,101628.56
2023-05-01T11:45:39.630Z,101636.22
2023-05-01T11:48:22.100Z,101620.84
2023-05-01T11:50:49.048Z,101640.31
2023-05-01T11:53:17.138Z,101630.16
2023-05-01T11:55:44.440Z,101645.41
2023-05-01T11:58:12.106Z,101646.91
2023-05-01T12:00:41.951Z,101644.00
2023-05-01T12:03:10.741Z,101658.34
2023-05-01T12:05:43.038Z,101665.25
2023-05-01T12:08:12.858Z,101667.19
2023-05-01T12:10:42.010Z,101665.75
2023-05-01T12:13:10.481Z,101653.69
2023-05-01T12:15:43.301Z,101663.44
2023-05-01T12:18:10.173Z,101622.56
2023-05-01T12:20:47.841Z,101660.59
2023-05-01T12:23:18.637Z,101656.75
2023-05-01T12:25:45.971Z,101637.00
2023-05-01T12:28:21.332Z,101647.25
2023-05-01T12:30:51.846Z,101658.31
2023-05-01T12:33:20.110Z,101652.03
2023-05-01T12:35:50.238Z,101635.28
2023-05-01T12:38:18.895Z,101636.81
2023-05-01T12:40:53.920Z,101659.69
2023-05-01T12:43:30.908Z,101641.84
2023-05-01T12:46:00.129Z,101658.16
2023-05-01T12:48:28.050Z,101658.75
2023-05-01T12:50:57.398Z,101663.16
2023-05-01T12:53:31.034Z,101677.56
2023-05-01T12:55:58.903Z,101672.78
2023-05-01T12:58:39.345Z,101679.81
2023-05-01T13:01:06.780Z,101658.09
2023-05-01T13:03:39.381Z,101676.84
2023-05-01T13:06:08.054Z,101665.44
2023-05-01T13:08:39.829Z,101676.09
2023-05-01T13:11:13.234Z,101674.50
2023-05-01T13:13:40.644Z,101674.16
2023-05-01T13:16:13.136Z,101677.28
2023-05-01T13:18:49.376Z,101685.03
2023-05-01T13:21:18.792Z,101650.34
2023-05-01T13:23:58.158Z,101673.06
2023-05-01T13:26:31.194Z,101690.06
2023-05-01T13:29:03.758Z,101684.09
2023-05-01T13:31:30.960Z,101669.50
2023-05-01T13:33:59.301Z,101680.38
2023-05-01T13:36:29.566Z,101655.72
2023-05-01T13:38:57.128Z,101672.63
2023-05-01T13:41:27.353Z,101684.19
2023-05-01T13:43:56.176Z,101705.91
2023-05-01T13:46:24.879Z,101701.13
2023-05-01T13:48:54.692Z,101654.09
2023-05-01T13:51:23.947Z,101694.09
2023-05-01T13:53:50.961Z,101702.72
2023-05-01T13:56:21.627Z,101689.84
2023-05-01T13:58:48.683Z,101701.88
2023-05-01T14:01:23.427Z,101695.06
2023-05-01T14:03:50.458Z,101697.00
2023-05-01T14:06:21.095Z,101690.44
2023-05-01T14:08:48.839Z,101684.72
2023-05-01T14:11:15.632Z,101686.91
2023-05-01T14:13:44.161Z,101692.66
2023-05-01T14:16:17.427Z,101680.84
2023-05-01T14:18:45.792Z,101696.34
2023-05-01T14:21:14.797Z,101687.91
2023-05-01T14:23:45.305Z,101702.50
2023-05-01T14:26:17.964Z,101711.91
2023-05-01T14:28:46.382Z,101710.19
2023-05-01T14:31:24.418Z,101720.59
2023-05-01T14:33:57.413Z,101690.22
2023-05-01T14:36:24.754Z,101720.06
2023-05-01T14:38:52.270Z,101724.16
2023-05-01T14:41:21.601Z,101716.22
2023-05-01T14:43:53.630Z,101713.06
2023-05-01T14:46:46.750Z,101722.41
2023-05-01T14:49:27.248Z,101726.53
2023-05-01T14:51:54.076Z,101727.84
2023-05-01T14:54:21.196Z,101721.94
2023-05-01T14:56:48.917Z,101726.03
2023-05-01T14:59:16.296Z,101716.09
2023-05-01T15:01:44.117Z,101712.13
2023-05-01T15:04:10.918Z,101704.56
2023-05-01T15:06:37.949Z,101717.66
2023-05-01T15:09:07.270Z,101698.94
2023-05-01T15:11:33.888Z,101716.34
2023-05-01T15:14:00.512Z,101715.06
2023-05-01T15:16:27.983Z,101726.78
2023-05-01T15:18:54.590Z,101714.00
2023-05-01T15:21:22.838Z,101706.16
2023-05-01T15:23:49.459Z,101708.72
2023-05-01T15:26:16.850Z,101725.22
2023-05-01T15:28:45.921Z,101725.94
2023-05-01T15:31:12.521Z,101716.50
2023-05-01T15:33:39.208Z,101719.22
2023-05-01T15:36:05.903Z,101731.50
2023-05-01T15:38:32.690Z,101708.34
2023-05-01T15:40:59.180Z,101706.06
2023-05-01T15:43:25.794Z,101711.94
2023-05-01T15:45:52.899Z,101710.59
2023-05-01T15:48:19.602Z,101710.50
2023-05-01T15:50:48.235Z,101705.91
2023-05-01T15:53:17.028Z,101731.53
2023-05-01T15:55:43.766Z,101720.97
2023-05-01T15:58:10.754Z,101714.03
2023-05-01T16:00:39.673Z,101717.09
2023-05-01T16:03:07.778Z,101724.22
2023-05-01T16:05:37.729Z,101728.69
2023-05-01T16:08:06.468Z,101710.00
2023-05-01T16:10:37.209Z,101730.47
2023-05-01T16:13:07.518Z,101739.66
2023-05-01T16:15:39.458Z,101748.31
2023-05-01T16:18:06.537Z,101731.19
2023-05-01T16:20:37.463Z,101744.25
2023-05-01T16:23:04.058Z,101740.59
2023-05-01T16:25:30.683Z,101730.88
2023-05-01T16:27:57.292Z,101729.19
2023-05-01T16:30:27.734Z,101734.28
2023-05-01T16:32:54.451Z,101723.78
2023-05-01T16:35:26.962Z,101718.66
2023-05-01T16:37:54.372Z,101727.41
2023-05-01T16:40:21.681Z,101728.38
2023-05-01T16:42:54.344Z,101733.00
2023-05-01T16:45:21.621Z,101741.44
2023-05-01T16:47:48.469Z,101726.22
2023-05-01T16:50:18.185Z,101721.28
2023-05-01T16:52:44.828Z,101741.53
2023-05-01T16:55:11.696Z,101751.59
2023-05-01T16:57:38.319Z,101755.50
2023-05-01T17:00:05.571Z,101749.47
2023-05-01T17:02:33.355Z,101747.09
2023-05-01T17:05:00.437Z,101736.94
2023-05-01T17:07:29.779Z,101753.47
2023-05-01T17:09:56.421Z,101755.38
2023-05-01T17:12:23.390Z,101748.66
2023-05-01T17:14:50.175Z,101756.78
2023-05-01T17:17:19.445Z,101752.50
2023-05-01T17:19:45.909Z,101747.69
2023-05-01T17:22:12.451Z,101760.16
2023-05-01T17:24:39.045Z,101745.22
2023-05-01T17:27:05.889Z,101743.06
2023-05-01T17:29:32.639Z,101751.94
2023-05-01T17:31:59.187Z,101763.03
2023-05-01T17:34:25.746Z,101762.06
2023-05-01T17:36:55.223Z,101743.09
2023-05-01T17:39:23.136Z,101732.53
2023-05-01T17:41:50.097Z,101739.91
2023-05-01T17:44:16.602Z,101746.16
2023-05-01T17:46:43.235Z,101747.25
2023-05-01T17:49:09.881Z,101757.84
2023-05-01T17:51:36.960Z,101760.13
2023-05-01T17:54:03.693Z,101756.81
2023-05-01T17:56:30.168Z,101760.84
2023-05-01T17:58:59.413Z,101757.97
2023-05-01T18:01:26.074Z,101761.94
2023-05-01T18:03:52.792Z,101768.25
2023-05-01T18:06:21.881Z,101770.38
2023-05-01T18:08:50.027Z,101780.47
2023-05-01T18:11:16.666Z,101777.28
2023-05-01T18:13:47.440Z,101781.22
2023-05-01T18:16:18.404Z,101772.72
2023-05-01T18:18:47.152Z,101799.84
2023-05-01T18:21:14.653Z,101788.94
2023-05-01T18:23:41.157Z,101778.25
2023-05-01T18:26:08.278Z,101794.06
2023-05-01T18:28:34.759Z,101780.34
2023-05-01T18:31:01.474Z,101809.22
2023-05-01T18:33:28.284Z,101804.25
2023-05-01T18:35:54.996Z,101793.44
2023-05-01T18:38:21.542Z,101790.16
2023-05-01T18:40:48.483Z,101815.69
2023-05-01T18:43:15.742Z,101825.13
2023-05-01T18:45:42.552Z,101814.28
2023-05-01T18:48:09.333Z,101825.84
2023-05-01T18:50:35.881Z,101828.63
2023-05-01T18:53:02.741Z,101826.28
2023-05-01T18:55:29.413Z,101821.25
2023-05-01T18:57:56.575Z,101810.28
2023-05-01T19:00:23.429Z,101819.97
2023-05-01T19:02:53.254Z,101821.06
2023-05-01T19:05:20.349Z,101844.56
2023-05-01T19:07:47.144Z,101800.91
2023-05-01T19:10:15.998Z,101831.31
2023-05-01T19:12:42.517Z,101832.44
2023-05-01T19:15:09.904Z,101852.47
2023-05-01T19:17:36.766Z,101845.03
2023-05-01T19:20:05.207Z,101862.56
2023-05-01T19:22:31.986Z,101857.34
2023-05-01T19:25:00.084Z,101849.88
2023-05-01T19:27:26.842Z,101853.47
2023-05-01T19:29:54.438Z,101859.72
2023-05-01T19:32:21.200Z,101871.03
2023-05-01T19:34:50.097Z,101866.03
2023-05-01T19:37:16.673Z,101876.63
2023-05-01T19:39:43.309Z,101878.75
2023-05-01T19:42:10.032Z,101871.34
2023-05-01T19:44:36.509Z,101865.56
2023-05-01T19:47:03.293Z,101901.22
2023-05-01T19:49:29.934Z,101898.25
2023-05-01T19:51:57.561Z,101892.47
2023-05-01T19:54:28.928Z,101924.69
2023-05-01T19:56:55.968Z,101915.31
2023-05-01T19:59:22.803Z,101918.25
2023-05-01T20:01:49.577Z,101923.63
2023-05-01T20:04:16.252Z,101942.09
2023-05-01T20:06:42.888Z,101937.88
2023-05-01T20:09:09.530Z,101932.09
2023-05-01T20:11:35.974Z,101935.88
2023-05-01T20:14:03.617Z,101930.03
2023-05-01T20:16:30.933Z,101938.94
2023-05-01T20:18:57.531Z,101947.72
2023-05-01T20:21:25.808Z,101937.56
2023-05-01T20:23:54.273Z,101959.31
2023-05-01T20:26:21.154Z,101948.28
2023-05-01T20:28:48.765Z,101962.22
2023-05-01T20:31:15.938Z,101978.69
2023-05-01T20:33:42.609Z,101971.84
2023-05-01T20:36:09.075Z,101966.00
2023-05-01T20:38:46.336Z,101994.63
2023-05-01T20:41:13.569Z,101977.38
2023-05-01T20:43:40.293Z,101997.34
2023-05-01T20:46:10.074Z,101980.16
2023-05-01T20:48:37.246Z,102005.38
2023-05-01T20:51:04.123Z,101984.66
2023-05-01T20:53:30.980Z,101995.31
2023-05-01T20:55:57.760Z,102002.28
2023-05-01T20:58:24.278Z,102011.06
2023-05-01T21:00:53.884Z,102005.19
2023-05-01T21:03:20.755Z,102014.09
2023-05-01T21:05:49.876Z,102025.41
2023-05-01T21:08:16.399Z,102016.94
2023-05-01T21:10:42.959Z,102010.09
2023-05-01T21:13:09.581Z,102006.84
2023-05-01T21:15:42.545Z,102032.09
2023-05-01T21:18:12.256Z,102041.88
2023-05-01T21:20:39.452Z,102045.47
2023-05-01T21:23:08.674Z,102044.72
2023-05-01T21:25:35.289Z,102037.09
2023-05-01T21:28:07.602Z,102046.91
2023-05-01T21:30:38.567Z,102054.75
2023-05-01T21:33:08.358Z,102037.56
2023-05-01T21:35:34.996Z,102042.00
2023-05-01T21:38:01.532Z,102052.50
2023-05-01T21:40:31.192Z,102032.78
2023-05-01T21:42:57.880Z,102053.66
2023-05-01T21:45:24.594Z,102058.09
2023-05-01T21:47:52.084Z,102068.63
2023-05-01T21:50:20.889Z,102069.66
2023-05-01T21:52:49.808Z,102061.06
2023-05-01T21:55:19.350Z,102068.91
2023-05-01T21:57:46.096Z,102062.16
2023-05-01T22:00:13.205Z,102053.53
2023-05-01T22:02:45.590Z,102060.56
2023-05-01T22:05:14.803Z,102080.66
2023-05-01T22:07:43.723Z,102078.94
2023-05-01T22:10:13.342Z,102067.81
2023-05-01T22:12:40.806Z,102044.50
2023-05-01T22:15:10.496Z,102074.88
2023-05-01T22:17:38.103Z,102051.66
2023-05-01T22:20:07.181Z,102069.88
2023-05-01T22:22:37.766Z,102083.88
2023-05-01T22:25:04.821Z,102081.34
2023-05-01T22:27:32.126Z,102082.41
2023-05-01T22:29:59.293Z,102074.69
2023-05-01T22:32:26.165Z,102080.81
2023-05-01T22:34:52.871Z,102076.63
2023-05-01T22:37:19.687Z,102094.03
2023-05-01T22:39:46.463Z,102083.75
2023-05-01T22:42:13.243Z,102078.66
2023-05-01T22:44:39.789Z,102081.31
2023-05-01T22:47:07.000Z,102086.66
2023-05-01T22:49:34.205Z,102097.97
2023-05-01T22:52:00.852Z,102100.59
2023-05-01T22:54:27.344Z,102111.09
2023-05-01T22:56:53.946Z,102106.00
2023-05-01T22:59:21.828Z,102093.88
2023-05-01T23:01:50.860Z,102094.81
2023-05-01T23:04:17.733Z,102112.22
2023-05-01T23:06:44.596Z,102105.34
2023-05-01T23:09:11.897Z,102114.94
2023-05-01T23:11:40.253Z,102119.34
2023-05-01T23:14:07.335Z,102124.63
2023-05-01T23:16:41.422Z,102108.22
2023-05-01T23:19:21.419Z,102128.19
2023-05-01T23:21:49.005Z,102116.09
2023-05-01T23:24:20.260Z,102145.63
2023-05-01T23:26:47.445Z,102142.22
2023-05-01T23:29:16.126Z,102147.44
2023-05-01T23:31:46.438Z,102145.72
2023-05-01T23:34:15.998Z,102156.22
2023-05-01T23:36:46.222Z,102139.75
2023-05-01T23:39:13.326Z,102150.97
2023-05-01T23:41:40.009Z,102138.84
2023-05-01T23:44:10.054Z,102144.09
2023-05-01T23:46:37.241Z,102153.63
2023-05-01T23:49:03.939Z,102137.13
2023-05-01T23:51:31.792Z,102132.78
2023-05-01T23:53:58.513Z,102155.34
2023-05-01T23:56:25.169Z,102152.75
2023-05-01T23:58:51.898Z,102150.16
